• Join FlightAware (Why Join?)
  • Login
  • US Flag 
 
11:05PM EST


 

Airport Tracker/Info


-or-


 

Live Flight TrackerFlight Track Log ✈ N821LC ✈ 29-Jun-2013 ✈ KSLN - KLAS

Flight Track Log - Related Links

Times and Time Zones

All times are in EDT time to prevent confusion due to time zone crossing. See the N821LC flight status page for this flight to view local times or setup timezone preferences in your user account.

Time Position Orientation Groundspeed Altitude Reporting Facility
EDT Latitude Longitude Course Direction KTS MPH feet Rate Location/Type
09:32PM 38.8158 -97.7244 281° West 208 239 5,000  Level Kansas City Center
09:33PM 38.8164 -97.8108 270° West 261 300 7,200 2,580 Climbing Kansas City Center
09:34PM 38.8117 -97.9142 267° West 287 330 10,300 2,820 Climbing Kansas City Center
09:35PM 38.8061 -98.0317 267° West 327 376 13,000 2,820 Climbing Kansas City Center
09:36PM 38.7997 -98.1603 266° West 359 413 16,100 3,060 Climbing Kansas City Center
09:37PM 38.7411 -98.6438 266° West  Level FlightAware Approximate
09:37PM 38.7933 -98.2947 267° West 376 433 19,300  Level Kansas City Center
09:38PM 38.7881 -98.4289 267° West 378 435 22,400 1,800 Climbing Kansas City Center
09:39PM 38.7819 -98.5681 267° West 394 453 23,000 1,020 Climbing Kansas City Center
09:40PM 38.7739 -98.7183 266° West 422 486 24,500 1,860 Climbing Kansas City Center
09:41PM 38.7667 -98.8672 266° West 421 484 26,900 2,100 Climbing Kansas City Center
09:42PM 38.7567 -99.0475 266° West 425 489 28,800 1,380 Climbing Kansas City Center
09:43PM 38.7492 -99.2028 267° West 438 504 29,800 960 Climbing Kansas City Center
09:44PM 38.7403 -99.3614 266° West 445 512 30,800 1,080 Climbing Kansas City Center
09:45PM 38.7308 -99.5206 266° West 449 517 32,100 1,320 Climbing Kansas City Center
09:46PM 38.7225 -99.6686 266° West 441 507 33,600 1,500 Climbing Kansas City Center
09:47PM 38.7128 -99.8381 266° West 431 496 35,200 1,200 Climbing Kansas City Center
09:48PM 38.7047 -99.9811 266° West 425 489 36,100 900 Climbing Kansas City Center
09:49PM 38.6942 -100.1486 265° West 425 489 37,100 960 Climbing Kansas City Center
09:50PM 38.6878 -100.2172 263° West 423 487 37,600 960 Climbing Denver Center
09:51PM 38.6797 -100.3586 266° West 419 482 38,600 1,020 Climbing Denver Center
09:52PM 38.6694 -100.5203 265° West 413 475 39,700 780 Climbing Denver Center
09:53PM 38.6617 -100.6336 265° West 406 467 40,200 600 Climbing Denver Center
09:54PM 38.6506 -100.7953 265° West 410 472 41,000 780 Climbing Denver Center
09:55PM 38.6392 -100.9564 265° West 408 470 41,800 600 Climbing Denver Center
09:56PM 38.6300 -101.0931 265° West 406 467 42,300 480 Climbing Denver Center
09:57PM 38.6183 -101.2547 265° West 410 472 42,800 300 Climbing Denver Center
09:58PM 38.6083 -101.3931 265° West 411 473 43,000 60 Climbing Denver Center
09:59PM 38.5964 -101.5581 265° West 420 483 43,000  Level Denver Center
10:00PM 38.5856 -101.7008 264° West 425 489 43,000  Level Denver Center
10:01PM 38.5747 -101.8458 265° West 428 493 43,000  Level Denver Center
10:02PM 38.5614 -102.0150 264° West 431 496 43,000  Level Denver Center
10:03PM 38.5500 -102.1606 264° West 431 496 43,000  Level Denver Center
10:04PM 38.5369 -102.3300 264° West 431 496 43,000  Level Denver Center
10:05PM 38.5231 -102.4764 263° West 435 501 43,000  Level Denver Center
10:06PM 38.5122 -102.6228 265° West 434 499 43,000  Level Denver Center
10:07PM 38.4997 -102.7936 265° West 434 499 43,000  Level Denver Center
10:08PM 38.4853 -102.9411 263° West 436 502 43,000  Level Denver Center
10:09PM 38.4692 -103.1142 263° West 439 505 43,000  Level Denver Center
10:10PM 38.4569 -103.2617 264° West 439 505 43,000  Level Denver Center
10:11PM 38.4433 -103.4086 263° West 438 504 43,000  Level Denver Center
10:13PM 38.4275 -103.5783 263° West 437 503 43,000  Level Denver Center
10:14PM 38.4092 -103.7764 263° West 441 507 43,000  Level Denver Center
10:15PM 38.3953 -103.9239 263° West 440 506 43,000  Level Denver Center
10:16PM 38.3819 -104.0728 264° West 442 509 43,000  Level Denver Center
10:17PM 38.3642 -104.2522 263° West 451 519 43,000  Level Denver Center
10:18PM 38.3492 -104.4094 263° West 449 517 43,000  Level Denver Center
10:19PM 38.3319 -104.5736 262° West 446 513 43,000  Level Denver Center
10:20PM 38.3164 -104.7228 262° West 445 512 43,000  Level Denver Center
10:21PM 38.3019 -104.8703 263° West 442 509 43,000  Level Denver Center
10:22PM 38.2839 -105.0411 262° West 440 506 43,000  Level Denver Center
10:23PM 38.2686 -105.1878 262° West 439 505 43,000  Level Denver Center
10:24PM 38.2492 -105.3581 262° West 437 503 43,000  Level Denver Center
10:25PM 38.2336 -105.5044 262° West 438 504 43,000  Level Denver Center
10:26PM 38.2181 -105.6519 262° West 438 504 43,000  Level Denver Center
10:27PM 38.1989 -105.8231 262° West 440 506 43,000  Level Denver Center
10:28PM 38.1814 -105.9708 261° West 442 509 43,000  Level Denver Center
10:29PM 38.1622 -106.1422 262° West 442 509 43,000  Level Denver Center
10:30PM 38.1458 -106.2908 262° West 442 509 43,000  Level Denver Center
10:31PM 38.1281 -106.4433 262° West 435 501 43,000  Level Denver Center
10:32PM 38.1078 -106.6136 261° West 443 510 43,000  Level Denver Center
10:33PM 38.0900 -106.7600 261° West 438 504 43,000  Level Denver Center
10:34PM 38.0725 -106.9075 261° West 442 509 43,000  Level Denver Center
10:35PM 38.0514 -107.0789 261° West 440 506 43,000  Level Denver Center
10:36PM 38.0339 -107.2217 261° West 438 504 43,000  Level Denver Center
10:37PM 38.0125 -107.3942 261° West 444 511 43,000  Level Denver Center
10:38PM 37.9939 -107.5408 261° West 442 509 43,000  Level Denver Center
10:39PM 37.9758 -107.6892 261° West 445 512 43,000  Level Denver Center
10:40PM 37.9525 -107.8614 260° West 446 513 43,000  Level Denver Center
10:41PM 37.9333 -108.0092 261° West 445 512 43,000  Level Denver Center
10:42PM 37.9103 -108.1822 260° West 444 511 43,000  Level Denver Center
10:43PM 37.8908 -108.3308 261° West 448 516 43,000  Level Denver Center
10:44PM 37.8708 -108.4792 260° West 448 516 43,000  Level Denver Center
10:45PM 37.8469 -108.6525 260° West 450 518 43,000  Level Denver Center
10:46PM 37.8275 -108.8008 261° West 448 516 43,000  Level Denver Center
10:47PM 37.8017 -108.9681 259° West 437 503 43,000  Level Denver Center
10:48PM 37.7639 -109.1111 252° West 447 514 43,000  Level Denver Center
10:49PM 37.7292 -109.2531 253° West 446 513 43,000  Level Denver Center
10:50PM 37.6875 -109.4156 252° West 440 506 43,000  Level Denver Center
10:51PM 37.6531 -109.5561 253° West 438 504 43,000  Level Denver Center
10:53PM 37.6111 -109.7192 252° West 437 503 43,000  Level Denver Center
10:54PM 37.5761 -109.8603 253° West 439 505 43,000  Level Denver Center
10:55PM 37.5336 -110.0258 252° West 444 511 43,000  Level Denver Center
10:56PM 37.4872 -110.2019 252° West 438 504 43,000 -300 Level Denver Center
10:57PM 37.4492 -110.3494 252° West 444 511 42,400 -840 Descending Denver Center
10:58PM 37.4114 -110.4983 252° West 446 513 41,400 -1,020 Descending Denver Center
10:59PM 37.3736 -110.6456 252° West 443 510 40,400 -1,020 Descending Denver Center
11:00PM 37.3328 -110.7931 251° West 446 513 39,400 -1,020 Descending Denver Center
11:01PM 37.2933 -110.9436 252° West 454 522 38,400 -1,020 Descending Denver Center
11:02PM 37.2522 -111.0947 251° West 457 526 37,400 -1,260 Descending Denver Center
11:03PM 37.2122 -111.2453 252° West 455 524 35,900 -1,680 Descending Denver Center
11:04PM 37.1653 -111.4236 252° West 449 517 34,100 -1,680 Descending Denver Center
11:05PM 37.1258 -111.5728 252° West 450 518 32,500 -1,320 Descending Denver Center
11:06PM 37.1097 -111.6331 251° West 449 517 32,100 -360 Descending Los Angeles Center
11:07PM 37.0664 -111.7867 251° West 460 529 32,000 -60 Descending Los Angeles Center
11:08PM 37.0150 -111.9739 251° West 470 541 32,000  Level Los Angeles Center
11:09PM 36.9692 -112.1317 250° West 479 551 32,000  Level Los Angeles Center
11:10PM 36.9272 -112.2828 251° West 463 533 32,000  Level Los Angeles Center
11:11PM 36.8872 -112.4306 251° West 451 519 32,000  Level Los Angeles Center
11:12PM 36.8764 -112.5844 265° West 444 511 32,000  Level Los Angeles Center
11:13PM 36.8661 -112.7403 265° West 447 514 32,000  Level Los Angeles Center
11:14PM 36.8567 -112.9017 266° West 461 531 32,000  Level Los Angeles Center
11:15PM 36.8481 -113.0653 266° West 468 539 32,000 -180 Level Los Angeles Center
11:16PM 36.8372 -113.2306 265° West 475 547 31,700 -1,080 Descending Los Angeles Center
11:17PM 36.8275 -113.3942 266° West 472 543 29,900 -2,100 Descending Los Angeles Center
11:18PM 36.8086 -113.5581 262° West 477 549 27,400 -2,760 Descending Los Angeles Center
11:19PM 36.7344 -113.7344 242° Southwest 477 549 24,300 -2,760 Descending Los Angeles Center
11:20PM 36.6700 -113.8700 239° Southwest 461 531 21,800 -2,460 Descending Los Angeles Center
11:21PM 36.6161 -113.9908 241° Southwest 414 476 19,300 -2,640 Descending Los Angeles Center
11:22PM 36.5611 -114.1114 240° Southwest 404 465 16,500 -2,640 Descending Los Angeles Center
11:23PM 36.5086 -114.2272 241° Southwest 382 440 13,900 -2,580 Descending Los Angeles Center
11:24PM 36.4717 -114.3142 242° Southwest 375 432 12,100 -1,080 Descending Los Angeles Center
11:25PM 36.4236 -114.4192 240° Southwest 325 374 12,000 -180 Descending Los Angeles Center
11:26PM 36.3636 -114.4903 224° Southwest 307 353 11,800 -900 Descending Los Angeles Center
11:27PM 36.2889 -114.5131 194° South 301 346 10,300 -1,620 Descending Los Angeles Center
11:28PM 36.1992 -114.5381 193° South 272 313 8,400 -1,080 Descending Los Angeles Center
11:29PM 36.1342 -114.5575 194° South 244 281 8,000 -240 Descending Los Angeles Center
11:30PM 36.0822 -114.5964 211° Southwest 235 270 8,000  Level Los Angeles Center
11:31PM 36.0753 -114.6519 261° West 236 272 8,000  Level Los Angeles Center
11:32PM 36.0722 -114.7461 268° West 240 276 8,000 -600 Level Los Angeles Center
11:33PM 36.0739 -114.8228 272° West 222 255 6,800 -1,020 Descending Los Angeles Center
11:34PM 36.0736 -114.8897 270° West 190 219 6,000 -1,140 Descending Los Angeles Center
11:35PM 36.0747 -114.9636 271° West 187 215 4,500 -1,020 Descending Los Angeles Center
11:36PM 36.0736 -115.0281 269° West 172 198 3,600 -780 Descending Los Angeles Center
11:37PM 36.0725 -115.0628 268° West 136 157 3,000 -720 Descending Los Angeles Center
11:38PM 36.0733 -115.1053 271° West 128 147 2,400 -600 Descending Los Angeles Center
11:40PM 36.0667 -115.1500 219° Southwest  Level FlightAware Approximate
11:47PM 36.0801 -115.1523 219° Southwest  Level Estimated